createdAt,value
2022-11-20T00:00:38.002Z,38.40
2022-11-20T00:03:11.688Z,42.40
2022-11-20T00:05:43.776Z,40.80
2022-11-20T00:08:16.835Z,36.80
2022-11-20T00:10:51.448Z,42.50
2022-11-20T00:13:23.109Z,44.10
2022-11-20T00:16:02.028Z,37.50
2022-11-20T00:18:34.659Z,39.20
2022-11-20T00:21:08.651Z,36.30
2022-11-20T00:23:41.207Z,35.80
2022-11-20T00:26:15.827Z,45.70
2022-11-20T00:28:52.430Z,48.70
2022-11-20T00:31:25.005Z,40.30
2022-11-20T00:33:58.814Z,30.10
2022-11-20T00:36:34.052Z,33.90
2022-11-20T00:39:06.519Z,36.80
2022-11-20T00:41:39.168Z,37.10
2022-11-20T00:44:12.058Z,34.80
2022-11-20T00:46:44.844Z,45.80
2022-11-20T00:49:19.332Z,45.80
2022-11-20T00:51:51.803Z,42.40
2022-11-20T00:54:25.066Z,43.80
2022-11-20T00:56:56.610Z,34.50
2022-11-20T00:59:30.551Z,40.10
2022-11-20T01:02:03.870Z,39.60
2022-11-20T01:04:36.374Z,39.20
2022-11-20T01:07:08.046Z,38.00
2022-11-20T01:09:40.363Z,40.60
2022-11-20T01:12:11.859Z,41.50
2022-11-20T01:14:44.939Z,40.10
2022-11-20T01:17:17.850Z,38.00
2022-11-20T01:19:50.788Z,40.30
2022-11-20T01:22:33.927Z,36.80
2022-11-20T01:25:04.030Z,40.70
2022-11-20T01:27:33.549Z,42.30
2022-11-20T01:30:02.912Z,40.40
2022-11-20T01:32:32.583Z,39.30
2022-11-20T01:35:02.129Z,37.10
2022-11-20T01:37:31.421Z,36.90
2022-11-20T01:40:03.376Z,39.50
2022-11-20T01:42:51.808Z,41.40
2022-11-20T01:45:57.828Z,36.40
2022-11-20T01:48:31.338Z,37.00
2022-11-20T01:51:06.949Z,37.70
2022-11-20T01:53:38.581Z,37.30
2022-11-20T01:56:13.118Z,38.90
2022-11-20T01:58:47.338Z,39.20
2022-11-20T02:01:17.005Z,40.40
2022-11-20T02:03:47.771Z,36.60
2022-11-20T02:06:21.880Z,35.20
2022-11-20T02:08:51.929Z,37.10
2022-11-20T02:11:21.599Z,34.80
2022-11-20T02:13:51.649Z,34.20
2022-11-20T02:16:25.297Z,37.60
2022-11-20T02:21:36.612Z,37.40
2022-11-20T02:24:10.330Z,36.10
2022-11-20T02:26:52.897Z,37.00
2022-11-20T02:29:27.289Z,37.90
2022-11-20T02:31:58.428Z,36.10
2022-11-20T02:34:27.920Z,35.80
2022-11-20T02:36:58.819Z,35.90
2022-11-20T02:39:29.523Z,36.00
2022-11-20T02:41:59.113Z,36.20
2022-11-20T02:44:28.640Z,35.00
2022-11-20T02:47:00.129Z,35.70
2022-11-20T02:49:29.799Z,36.00
2022-11-20T02:51:59.208Z,35.00
2022-11-20T02:54:29.772Z,36.60
2022-11-20T02:56:59.258Z,36.30
2022-11-20T02:59:28.789Z,35.40
2022-11-20T03:01:58.212Z,37.40
2022-11-20T03:04:27.724Z,38.00
2022-11-20T03:06:57.236Z,37.30
2022-11-20T03:09:26.727Z,35.20
2022-11-20T03:11:56.128Z,34.80
2022-11-20T03:14:25.620Z,37.00
2022-11-20T03:16:55.412Z,35.70
2022-11-20T03:19:25.360Z,37.30
2022-11-20T03:21:56.745Z,36.00
2022-11-20T03:24:26.557Z,35.40
2022-11-20T03:27:04.342Z,35.80
2022-11-20T03:29:33.856Z,34.80
2022-11-20T03:32:03.477Z,38.90
2022-11-20T03:34:32.848Z,37.20
2022-11-20T03:37:02.651Z,39.20
2022-11-20T03:39:35.499Z,36.30
2022-11-20T03:42:25.859Z,36.30
2022-11-20T03:44:55.448Z,38.10
2022-11-20T03:47:25.030Z,38.80
2022-11-20T03:50:00.710Z,37.40
2022-11-20T03:52:30.279Z,39.60
2022-11-20T03:54:59.537Z,39.10
2022-11-20T03:57:28.943Z,35.70
2022-11-20T03:59:58.439Z,37.50
2022-11-20T04:02:27.779Z,36.70
2022-11-20T04:04:57.203Z,38.50
2022-11-20T04:07:26.811Z,37.20
2022-11-20T04:09:56.422Z,37.40
2022-11-20T04:12:32.798Z,36.90
2022-11-20T04:17:30.780Z,37.10
2022-11-20T04:20:01.772Z,40.00
2022-11-20T04:22:31.258Z,40.00
2022-11-20T04:25:00.720Z,38.40
2022-11-20T04:27:31.559Z,38.80
2022-11-20T04:30:01.076Z,39.30
2022-11-20T04:32:30.411Z,36.90
2022-11-20T04:34:59.941Z,38.00
2022-11-20T04:37:29.350Z,37.70
2022-11-20T04:39:58.861Z,36.40
2022-11-20T04:42:30.687Z,35.00
2022-11-20T04:45:01.021Z,36.70
2022-11-20T04:47:30.377Z,33.60
2022-11-20T04:50:00.319Z,34.80
2022-11-20T04:52:29.902Z,33.30
2022-11-20T04:54:59.359Z,34.80
2022-11-20T04:57:29.100Z,32.80
2022-11-20T04:59:58.470Z,35.60
2022-11-20T05:02:28.020Z,34.70
2022-11-20T05:04:57.489Z,33.70
2022-11-20T05:07:26.994Z,33.80
2022-11-20T05:09:59.437Z,32.60
2022-11-20T05:12:29.320Z,25.80
2022-11-20T05:14:58.801Z,33.30
2022-11-20T05:17:28.639Z,34.80
2022-11-20T05:19:58.045Z,34.10
2022-11-20T05:22:27.618Z,31.40
2022-11-20T05:25:00.078Z,35.50
2022-11-20T05:27:29.721Z,35.00
2022-11-20T05:29:59.259Z,34.40
2022-11-20T05:32:28.830Z,35.10
2022-11-20T05:34:58.260Z,33.90
2022-11-20T05:37:30.240Z,31.70
2022-11-20T05:40:00.548Z,30.70
2022-11-20T05:42:32.570Z,29.60
2022-11-20T05:45:05.487Z,30.20
2022-11-20T05:47:35.961Z,31.30
2022-11-20T05:50:07.060Z,30.50
2022-11-20T05:52:36.414Z,30.80
2022-11-20T05:55:07.151Z,32.10
2022-11-20T05:57:36.699Z,28.80
2022-11-20T06:00:09.810Z,31.80
2022-11-20T06:02:39.367Z,24.40
2022-11-20T06:05:10.031Z,31.70
2022-11-20T06:07:39.389Z,29.20
2022-11-20T06:10:10.930Z,29.20
2022-11-20T06:12:40.428Z,29.30
2022-11-20T06:15:11.467Z,28.80
2022-11-20T06:17:41.351Z,30.00
2022-11-20T06:20:12.583Z,29.30
2022-11-20T06:22:41.811Z,31.40
2022-11-20T06:25:11.410Z,28.40
2022-11-20T06:27:40.740Z,29.50
2022-11-20T06:30:13.091Z,29.50
2022-11-20T06:32:42.579Z,32.10
2022-11-20T06:35:12.579Z,29.90
2022-11-20T06:37:41.961Z,30.20
2022-11-20T06:40:14.059Z,29.80
2022-11-20T06:42:43.551Z,30.20
2022-11-20T06:45:13.360Z,28.50
2022-11-20T06:47:42.772Z,27.90
2022-11-20T06:50:12.708Z,28.20
2022-11-20T06:52:43.793Z,29.20
2022-11-20T06:55:13.538Z,26.70
2022-11-20T06:57:43.100Z,28.20
2022-11-20T07:00:16.011Z,29.10
2022-11-20T07:02:45.531Z,25.40
2022-11-20T07:05:15.819Z,31.80
2022-11-20T07:07:45.538Z,34.10
2022-11-20T07:10:15.430Z,36.30
2022-11-20T07:12:50.212Z,36.60
2022-11-20T07:15:21.921Z,31.40
2022-11-20T07:17:51.600Z,27.90
2022-11-20T07:20:20.886Z,30.60
2022-11-20T07:22:56.046Z,33.60
2022-11-20T07:25:26.509Z,30.00
2022-11-20T07:27:59.561Z,27.10
2022-11-20T07:30:29.753Z,27.10
2022-11-20T07:32:59.282Z,28.00
2022-11-20T07:35:28.923Z,33.30
2022-11-20T07:37:58.466Z,35.50
2022-11-20T07:40:28.054Z,35.90
2022-11-20T07:42:57.680Z,39.40
2022-11-20T07:45:27.261Z,39.40
2022-11-20T07:47:56.855Z,36.00
2022-11-20T07:50:26.507Z,30.90
2022-11-20T07:53:04.800Z,30.40
2022-11-20T07:55:35.161Z,28.60
2022-11-20T07:58:04.989Z,28.80
2022-11-20T08:00:34.638Z,30.20
2022-11-20T08:03:06.549Z,31.60
2022-11-20T08:05:36.350Z,32.70
2022-11-20T08:08:07.611Z,36.60
2022-11-20T08:10:37.929Z,33.50
2022-11-20T08:13:25.480Z,31.50
2022-11-20T08:15:55.214Z,29.70
2022-11-20T08:18:31.356Z,38.40
2022-11-20T08:21:05.598Z,37.80
2022-11-20T08:23:35.890Z,41.80
2022-11-20T08:26:07.812Z,42.90
2022-11-20T08:28:37.460Z,42.80
2022-11-20T08:31:07.411Z,46.60
2022-11-20T08:33:36.971Z,44.30
2022-11-20T08:36:09.396Z,46.90
2022-11-20T08:38:38.811Z,44.40
2022-11-20T08:41:27.428Z,42.50
2022-11-20T08:43:58.711Z,41.20
2022-11-20T08:46:33.900Z,41.80
2022-11-20T08:49:04.128Z,40.90
2022-11-20T08:51:55.652Z,42.60
2022-11-20T08:54:24.920Z,42.90
2022-11-20T08:56:54.841Z,42.10
2022-11-20T08:59:50.673Z,44.80
2022-11-20T09:02:14.092Z,44.50
2022-11-20T09:04:43.728Z,44.70
2022-11-20T09:07:13.255Z,44.80
2022-11-20T09:09:42.660Z,47.20
2022-11-20T09:12:12.021Z,46.00
2022-11-20T09:14:41.321Z,46.70
2022-11-20T09:17:14.158Z,46.40
2022-11-20T09:19:44.192Z,48.30
2022-11-20T09:22:14.126Z,46.60
2022-11-20T09:24:43.570Z,45.30
2022-11-20T09:27:13.019Z,46.60
2022-11-20T09:29:42.541Z,46.20
2022-11-20T09:32:11.877Z,43.70
2022-11-20T09:34:41.366Z,47.80
2022-11-20T09:37:12.202Z,45.60
2022-11-20T09:39:43.041Z,45.90
2022-11-20T09:42:38.222Z,43.50
2022-11-20T09:45:30.452Z,46.00
2022-11-20T09:48:27.369Z,45.10
2022-11-20T09:51:05.707Z,38.70
2022-11-20T09:53:45.711Z,38.90
2022-11-20T09:56:19.740Z,37.30
2022-11-20T09:58:55.695Z,35.80
2022-11-20T10:01:31.817Z,32.30
2022-11-20T10:04:05.419Z,34.60
2022-11-20T10:06:41.131Z,28.90
2022-11-20T10:09:25.065Z,29.70
2022-11-20T10:14:38.918Z,29.10
2022-11-20T10:17:18.120Z,31.70
2022-11-20T10:20:18.458Z,31.60
2022-11-20T10:23:08.740Z,31.40
2022-11-20T10:25:48.562Z,36.50
2022-11-20T10:28:36.920Z,44.00
2022-11-20T10:31:10.067Z,43.70
2022-11-20T10:34:10.424Z,45.80
2022-11-20T10:36:37.185Z,48.30
2022-11-20T10:39:19.475Z,40.10
2022-11-20T10:41:53.103Z,45.20
2022-11-20T10:44:46.015Z,43.90
2022-11-20T10:47:17.662Z,48.30
2022-11-20T10:50:00.621Z,44.30
2022-11-20T10:52:43.391Z,48.60
2022-11-20T10:55:40.913Z,44.40
2022-11-20T10:58:22.450Z,46.60
2022-11-20T11:00:52.391Z,43.20
2022-11-20T11:03:29.691Z,41.20
2022-11-20T11:06:08.640Z,44.60
2022-11-20T11:08:41.777Z,44.50
2022-11-20T11:11:25.621Z,44.60
2022-11-20T11:14:05.761Z,42.90
2022-11-20T11:16:36.531Z,42.20
2022-11-20T11:19:11.920Z,37.90
2022-11-20T11:21:53.958Z,39.20
2022-11-20T11:24:43.227Z,36.30
2022-11-20T11:27:18.170Z,35.90
2022-11-20T11:29:48.211Z,37.20
2022-11-20T11:32:22.265Z,36.30
2022-11-20T11:35:02.745Z,37.30
2022-11-20T11:37:37.945Z,35.00
2022-11-20T11:40:27.781Z,34.50
2022-11-20T11:43:01.521Z,36.00
2022-11-20T11:48:04.361Z,34.10
2022-11-20T11:50:34.449Z,32.20
2022-11-20T11:53:13.590Z,33.80
2022-11-20T11:55:48.402Z,31.10
2022-11-20T11:58:46.081Z,30.80
2022-11-20T12:01:29.454Z,31.70
2022-11-20T12:04:05.793Z,29.60
2022-11-20T12:06:40.540Z,26.10
2022-11-20T12:09:13.026Z,30.30
2022-11-20T12:11:48.655Z,28.20
2022-11-20T12:14:24.757Z,28.90
2022-11-20T12:16:56.260Z,29.20
2022-11-20T12:19:29.102Z,29.70
2022-11-20T12:22:05.262Z,28.90
2022-11-20T12:24:44.422Z,30.90
2022-11-20T12:27:56.922Z,31.80
2022-11-20T12:30:26.712Z,31.00
2022-11-20T12:33:19.220Z,31.60
2022-11-20T12:36:01.772Z,32.60
2022-11-20T12:38:52.870Z,33.90
2022-11-20T12:41:54.135Z,31.70
2022-11-20T12:44:58.450Z,34.20
2022-11-20T12:47:35.431Z,31.60
2022-11-20T12:50:16.509Z,32.60
2022-11-20T12:52:51.660Z,31.80
2022-11-20T12:55:37.839Z,34.20
2022-11-20T12:58:14.830Z,32.70
2022-11-20T13:00:59.793Z,31.50
2022-11-20T13:03:42.739Z,32.80
2022-11-20T13:06:18.554Z,31.10
2022-11-20T13:08:53.789Z,32.30
2022-11-20T13:11:32.965Z,28.40
2022-11-20T13:14:13.039Z,35.10
2022-11-20T13:16:49.775Z,35.00
2022-11-20T13:19:20.082Z,31.00
2022-11-20T13:21:51.334Z,35.20
2022-11-20T13:24:27.326Z,36.20
2022-11-20T13:27:19.981Z,35.90
2022-11-20T13:30:14.284Z,37.50
2022-11-20T13:35:32.739Z,37.10
2022-11-20T13:38:06.010Z,40.30
2022-11-20T13:40:37.974Z,37.60
2022-11-20T13:43:19.501Z,37.90
2022-11-20T13:45:59.130Z,34.30
2022-11-20T13:48:34.375Z,34.60
2022-11-20T13:51:13.399Z,33.80
2022-11-20T13:54:11.080Z,32.60
2022-11-20T13:56:55.403Z,31.70
2022-11-20T13:59:40.062Z,31.80
2022-11-20T14:02:18.354Z,33.50
2022-11-20T14:04:57.238Z,34.00
2022-11-20T14:07:38.048Z,36.50
2022-11-20T14:10:20.538Z,34.70
2022-11-20T14:12:51.660Z,31.60
2022-11-20T14:15:29.619Z,34.20
2022-11-20T14:18:00.114Z,32.60
2022-11-20T14:20:32.761Z,32.70
2022-11-20T14:23:03.880Z,32.40
2022-11-20T14:25:33.552Z,33.20
2022-11-20T14:28:04.929Z,30.30
2022-11-20T14:30:44.723Z,53.40
2022-11-20T14:33:15.779Z,38.70
2022-11-20T14:35:48.409Z,39.90
2022-11-20T14:38:21.534Z,35.60
2022-11-20T14:40:51.018Z,36.70
2022-11-20T14:43:23.423Z,35.20
2022-11-20T14:45:59.543Z,38.40
2022-11-20T14:48:32.970Z,35.10
2022-11-20T14:51:07.056Z,37.50
2022-11-20T14:56:11.361Z,34.60
2022-11-20T14:58:40.763Z,36.70
2022-11-20T15:01:15.479Z,37.20
2022-11-20T15:03:45.140Z,37.60
2022-11-20T15:06:28.908Z,41.00
2022-11-20T15:09:18.029Z,37.30
2022-11-20T15:11:57.161Z,42.00
2022-11-20T15:14:38.430Z,42.40
2022-11-20T15:17:17.573Z,44.00
2022-11-20T15:19:51.881Z,46.50
2022-11-20T15:22:23.847Z,50.80
2022-11-20T15:24:57.769Z,50.10
2022-11-20T15:27:27.959Z,49.60
2022-11-20T15:29:58.292Z,54.10
2022-11-20T15:32:29.291Z,48.50
2022-11-20T15:34:59.061Z,48.90
2022-11-20T15:37:30.168Z,49.30
2022-11-20T15:40:05.789Z,50.20
2022-11-20T15:43:01.660Z,49.30
2022-11-20T15:45:39.866Z,49.30
2022-11-20T15:48:20.851Z,51.10
2022-11-20T15:51:00.723Z,50.90
2022-11-20T15:53:34.879Z,54.40
2022-11-20T15:56:16.410Z,52.70
2022-11-20T15:59:04.572Z,52.90
2022-11-20T16:01:44.671Z,50.60
2022-11-20T16:04:23.671Z,58.40
2022-11-20T16:07:04.334Z,54.40
2022-11-20T16:09:51.922Z,59.00
2022-11-20T16:12:50.693Z,61.10
2022-11-20T16:15:39.374Z,56.30
2022-11-20T16:18:16.402Z,58.60
2022-11-20T16:21:07.951Z,59.70
2022-11-20T16:23:46.944Z,57.40
2022-11-20T16:26:20.043Z,63.20
2022-11-20T16:28:50.931Z,48.50
2022-11-20T16:31:22.459Z,66.80
2022-11-20T16:33:54.062Z,64.00
2022-11-20T16:36:25.181Z,62.90
2022-11-20T16:38:57.961Z,64.20
2022-11-20T16:41:30.907Z,60.70
2022-11-20T16:44:15.731Z,67.00
2022-11-20T16:46:45.241Z,59.40
2022-11-20T16:49:16.120Z,64.10
2022-11-20T16:51:45.667Z,64.90
2022-11-20T16:54:20.778Z,65.30
2022-11-20T16:56:54.097Z,63.90
2022-11-20T16:59:23.909Z,63.10
2022-11-20T17:01:53.421Z,63.60
2022-11-20T17:04:23.704Z,64.20
2022-11-20T17:06:54.238Z,64.40
2022-11-20T17:09:25.852Z,69.80
2022-11-20T17:11:58.512Z,68.50
2022-11-20T17:14:56.484Z,63.00
2022-11-20T17:17:27.559Z,69.60
2022-11-20T17:20:00.064Z,64.60
2022-11-20T17:22:29.584Z,66.80
2022-11-20T17:24:59.188Z,71.50
2022-11-20T17:27:32.649Z,63.20
2022-11-20T17:30:04.942Z,66.70
2022-11-20T17:32:34.808Z,73.00
2022-11-20T17:35:06.733Z,68.90
2022-11-20T17:37:45.057Z,62.80
2022-11-20T17:40:14.841Z,67.50
2022-11-20T17:42:44.290Z,65.20
2022-11-20T17:45:15.844Z,65.90
2022-11-20T17:47:46.368Z,69.50
2022-11-20T17:50:21.875Z,68.50
2022-11-20T17:52:58.394Z,73.60
2022-11-20T17:55:55.336Z,73.80
2022-11-20T17:58:27.469Z,71.60
2022-11-20T18:01:06.650Z,74.40
2022-11-20T18:03:36.734Z,71.00
2022-11-20T18:06:13.580Z,63.70
2022-11-20T18:08:46.333Z,72.90
2022-11-20T18:11:17.621Z,70.90
2022-11-20T18:14:07.391Z,70.00
2022-11-20T18:16:39.581Z,71.90
2022-11-20T18:19:09.461Z,71.90
2022-11-20T18:21:39.131Z,62.50
2022-11-20T18:24:10.270Z,65.70
2022-11-20T18:26:44.246Z,61.80
2022-11-20T18:29:15.008Z,66.30
2022-11-20T18:31:50.532Z,64.80
2022-11-20T18:34:28.059Z,66.80
2022-11-20T18:36:58.559Z,63.40
2022-11-20T18:39:29.297Z,72.60
2022-11-20T18:42:19.090Z,69.60
2022-11-20T18:44:51.755Z,73.00
2022-11-20T18:47:23.281Z,64.40
2022-11-20T18:49:56.830Z,66.50
2022-11-20T18:52:35.551Z,61.00
2022-11-20T18:55:12.041Z,66.80
2022-11-20T18:57:47.859Z,68.60
2022-11-20T19:00:28.849Z,66.60
2022-11-20T19:03:12.561Z,69.30
2022-11-20T19:05:54.842Z,67.60
2022-11-20T19:08:43.547Z,69.80
2022-11-20T19:11:17.502Z,68.30
2022-11-20T19:13:48.557Z,68.00
2022-11-20T19:16:30.444Z,68.10
2022-11-20T19:19:03.568Z,68.60
2022-11-20T19:21:43.680Z,62.90
2022-11-20T19:24:21.545Z,66.90
2022-11-20T19:26:58.760Z,67.90
2022-11-20T19:29:34.529Z,67.90
2022-11-20T19:32:20.132Z,69.40
2022-11-20T19:34:59.121Z,66.90
2022-11-20T19:37:41.723Z,64.80
2022-11-20T19:40:18.952Z,65.10
2022-11-20T19:42:59.437Z,67.90
2022-11-20T19:45:36.424Z,62.40
2022-11-20T19:48:13.622Z,67.00
2022-11-20T19:50:44.368Z,67.40
2022-11-20T19:53:14.439Z,64.80
2022-11-20T19:55:54.681Z,65.20
2022-11-20T19:58:24.420Z,65.60
2022-11-20T20:00:53.929Z,64.30
2022-11-20T20:03:28.561Z,66.50
2022-11-20T20:06:18.119Z,65.50
2022-11-20T20:08:59.979Z,63.60
2022-11-20T20:11:33.691Z,64.50
2022-11-20T20:16:32.549Z,60.30
2022-11-20T20:19:03.926Z,62.80
2022-11-20T20:21:41.669Z,62.00
2022-11-20T20:24:12.194Z,62.70
2022-11-20T20:26:44.560Z,63.90
2022-11-20T20:29:20.559Z,63.80
2022-11-20T20:31:50.340Z,65.20
2022-11-20T20:34:19.891Z,66.10
2022-11-20T20:36:51.852Z,66.70
2022-11-20T20:39:21.649Z,66.10
2022-11-20T20:41:51.034Z,65.20
2022-11-20T20:44:38.594Z,64.50
2022-11-20T20:47:08.150Z,65.10
2022-11-20T20:49:37.559Z,61.60
2022-11-20T20:52:10.030Z,60.70
2022-11-20T20:54:41.603Z,61.00
2022-11-20T20:57:10.899Z,65.00
2022-11-20T20:59:40.741Z,63.10
2022-11-20T21:02:10.931Z,65.30
2022-11-20T21:04:40.681Z,63.60
2022-11-20T21:07:11.067Z,63.30
2022-11-20T21:09:40.560Z,65.90
2022-11-20T21:12:10.472Z,65.20
2022-11-20T21:14:39.921Z,65.10
2022-11-20T21:17:14.813Z,67.40
2022-11-20T21:19:44.969Z,64.60
2022-11-20T21:22:14.531Z,64.60
2022-11-20T21:24:44.439Z,61.90
2022-11-20T21:27:13.806Z,58.70
2022-11-20T21:29:44.339Z,61.60
2022-11-20T21:32:13.811Z,61.10
2022-11-20T21:34:43.222Z,59.60
2022-11-20T21:37:12.608Z,60.20
2022-11-20T21:39:50.311Z,60.00
2022-11-20T21:42:20.042Z,60.00
2022-11-20T21:44:49.630Z,60.10
2022-11-20T21:47:19.029Z,60.60
2022-11-20T21:49:48.623Z,57.10
2022-11-20T21:52:18.066Z,58.70
2022-11-20T21:54:47.557Z,58.70
2022-11-20T21:57:17.051Z,57.20
2022-11-20T21:59:46.837Z,56.30
2022-11-20T22:02:17.036Z,56.70
2022-11-20T22:04:48.953Z,55.30
2022-11-20T22:07:19.072Z,55.60
2022-11-20T22:09:48.459Z,55.40
2022-11-20T22:12:18.000Z,55.10
2022-11-20T22:14:47.701Z,56.80
2022-11-20T22:17:37.361Z,58.40
2022-11-20T22:20:10.191Z,56.80
2022-11-20T22:22:41.219Z,55.10
2022-11-20T22:25:14.220Z,57.70
2022-11-20T22:27:46.059Z,56.00
2022-11-20T22:30:15.660Z,53.70
2022-11-20T22:32:45.061Z,53.00
2022-11-20T22:35:14.712Z,53.00
2022-11-20T22:37:44.260Z,51.60
2022-11-20T22:40:15.006Z,53.40
2022-11-20T22:42:47.387Z,49.30
2022-11-20T22:45:18.099Z,50.30
2022-11-20T22:47:47.920Z,51.60
2022-11-20T22:50:17.591Z,54.80
2022-11-20T22:52:47.088Z,55.20
2022-11-20T22:55:16.801Z,52.80
2022-11-20T22:57:46.022Z,52.30
2022-11-20T23:00:17.850Z,54.70
2022-11-20T23:02:47.451Z,55.50
2022-11-20T23:05:17.014Z,55.20
2022-11-20T23:07:46.464Z,53.20
2022-11-20T23:10:16.219Z,52.30
2022-11-20T23:12:45.700Z,54.70
2022-11-20T23:15:15.211Z,51.70
2022-11-20T23:17:44.719Z,50.50
2022-11-20T23:20:14.519Z,52.70
2022-11-20T23:22:43.829Z,53.60
2022-11-20T23:25:13.221Z,54.50
2022-11-20T23:27:43.109Z,56.90
2022-11-20T23:30:13.398Z,55.00
2022-11-20T23:32:42.753Z,53.80
2022-11-20T23:35:12.039Z,52.90
2022-11-20T23:37:41.291Z,55.90
2022-11-20T23:40:12.320Z,54.60
2022-11-20T23:42:58.874Z,51.50
2022-11-20T23:45:28.929Z,52.90
2022-11-20T23:47:58.252Z,54.70
2022-11-20T23:50:28.042Z,54.70
2022-11-20T23:52:57.442Z,57.10
2022-11-20T23:55:26.919Z,54.90
2022-11-20T23:57:58.513Z,55.20
